sensor_id;sensor_type;location;lat;lon;timestamp;P1;durP1;ratioP1;P2;durP2;ratioP2
19358;SDS011;9815;52.334;20.890;2023-08-07T00:02:02;9.37;;;8.87;;
19358;SDS011;9815;52.334;20.890;2023-08-07T00:04:30;9.77;;;9.23;;
19358;SDS011;9815;52.334;20.890;2023-08-07T00:06:58;9.77;;;9.17;;
19358;SDS011;9815;52.334;20.890;2023-08-07T00:09:27;10.50;;;9.57;;
19358;SDS011;9815;52.334;20.890;2023-08-07T00:11:55;10.70;;;10.10;;
19358;SDS011;9815;52.334;20.890;2023-08-07T00:14:23;10.07;;;9.47;;
19358;SDS011;9815;52.334;20.890;2023-08-07T00:16:53;9.60;;;8.97;;
19358;SDS011;9815;52.334;20.890;2023-08-07T00:19:21;10.83;;;10.23;;
19358;SDS011;9815;52.334;20.890;2023-08-07T00:21:50;8.93;;;8.43;;
19358;SDS011;9815;52.334;20.890;2023-08-07T00:24:19;8.93;;;8.43;;
19358;SDS011;9815;52.334;20.890;2023-08-07T00:26:47;8.13;;;7.63;;
19358;SDS011;9815;52.334;20.890;2023-08-07T00:29:15;12.67;;;11.80;;
19358;SDS011;9815;52.334;20.890;2023-08-07T00:31:44;7.47;;;7.07;;
19358;SDS011;9815;52.334;20.890;2023-08-07T00:34:14;7.70;;;7.30;;
19358;SDS011;9815;52.334;20.890;2023-08-07T00:36:43;6.87;;;6.47;;
19358;SDS011;9815;52.334;20.890;2023-08-07T00:39:11;6.67;;;6.27;;
19358;SDS011;9815;52.334;20.890;2023-08-07T00:41:40;7.33;;;6.93;;
19358;SDS011;9815;52.334;20.890;2023-08-07T00:44:08;6.70;;;6.30;;
19358;SDS011;9815;52.334;20.890;2023-08-07T00:46:36;7.00;;;6.60;;
19358;SDS011;9815;52.334;20.890;2023-08-07T00:49:05;7.27;;;6.80;;
19358;SDS011;9815;52.334;20.890;2023-08-07T00:51:37;6.73;;;6.33;;
19358;SDS011;9815;52.334;20.890;2023-08-07T00:54:06;6.17;;;5.87;;
19358;SDS011;9815;52.334;20.890;2023-08-07T00:56:37;7.20;;;6.80;;
19358;SDS011;9815;52.334;20.890;2023-08-07T00:59:06;6.27;;;5.87;;
19358;SDS011;9815;52.334;20.890;2023-08-07T01:01:36;6.10;;;5.80;;
19358;SDS011;9815;52.334;20.890;2023-08-07T01:04:04;6.67;;;6.20;;
19358;SDS011;9815;52.334;20.890;2023-08-07T01:06:33;7.07;;;6.67;;
19358;SDS011;9815;52.334;20.890;2023-08-07T01:09:03;7.03;;;6.63;;
19358;SDS011;9815;52.334;20.890;2023-08-07T01:11:33;7.73;;;7.00;;
19358;SDS011;9815;52.334;20.890;2023-08-07T01:14:08;7.20;;;6.80;;
19358;SDS011;9815;52.334;20.890;2023-08-07T01:16:50;8.80;;;8.20;;
19358;SDS011;9815;52.334;20.890;2023-08-07T01:19:22;7.17;;;6.77;;
19358;SDS011;9815;52.334;20.890;2023-08-07T01:22:04;7.47;;;7.07;;
19358;SDS011;9815;52.334;20.890;2023-08-07T01:24:34;7.97;;;7.47;;
19358;SDS011;9815;52.334;20.890;2023-08-07T01:27:07;7.53;;;7.03;;
19358;SDS011;9815;52.334;20.890;2023-08-07T01:29:44;7.53;;;7.03;;
19358;SDS011;9815;52.334;20.890;2023-08-07T01:32:21;11.60;;;10.90;;
19358;SDS011;9815;52.334;20.890;2023-08-07T01:34:52;8.00;;;7.50;;
19358;SDS011;9815;52.334;20.890;2023-08-07T01:37:23;7.60;;;7.20;;
19358;SDS011;9815;52.334;20.890;2023-08-07T01:39:56;8.30;;;7.70;;
19358;SDS011;9815;52.334;20.890;2023-08-07T01:42:26;7.90;;;7.30;;
19358;SDS011;9815;52.334;20.890;2023-08-07T01:44:55;8.53;;;7.73;;
19358;SDS011;9815;52.334;20.890;2023-08-07T01:47:23;7.87;;;7.27;;
19358;SDS011;9815;52.334;20.890;2023-08-07T01:49:52;8.57;;;7.87;;
19358;SDS011;9815;52.334;20.890;2023-08-07T01:52:20;8.17;;;7.57;;
19358;SDS011;9815;52.334;20.890;2023-08-07T01:54:50;9.47;;;8.60;;
19358;SDS011;9815;52.334;20.890;2023-08-07T01:57:18;8.30;;;7.80;;
19358;SDS011;9815;52.334;20.890;2023-08-07T01:59:47;9.37;;;8.57;;
19358;SDS011;9815;52.334;20.890;2023-08-07T02:02:15;9.10;;;8.20;;
19358;SDS011;9815;52.334;20.890;2023-08-07T02:04:44;8.13;;;7.53;;
19358;SDS011;9815;52.334;20.890;2023-08-07T02:07:13;8.40;;;7.67;;
19358;SDS011;9815;52.334;20.890;2023-08-07T02:09:41;8.60;;;7.83;;
19358;SDS011;9815;52.334;20.890;2023-08-07T02:12:11;8.20;;;7.70;;
19358;SDS011;9815;52.334;20.890;2023-08-07T02:14:39;8.43;;;7.83;;
19358;SDS011;9815;52.334;20.890;2023-08-07T02:17:07;9.50;;;8.70;;
19358;SDS011;9815;52.334;20.890;2023-08-07T02:19:35;10.33;;;8.70;;
19358;SDS011;9815;52.334;20.890;2023-08-07T02:22:05;8.97;;;8.37;;
19358;SDS011;9815;52.334;20.890;2023-08-07T02:24:33;11.03;;;9.07;;
19358;SDS011;9815;52.334;20.890;2023-08-07T02:27:01;9.00;;;8.30;;
19358;SDS011;9815;52.334;20.890;2023-08-07T02:29:31;9.30;;;8.60;;
19358;SDS011;9815;52.334;20.890;2023-08-07T02:32:01;8.73;;;8.13;;
19358;SDS011;9815;52.334;20.890;2023-08-07T02:34:30;9.20;;;8.53;;
19358;SDS011;9815;52.334;20.890;2023-08-07T02:36:59;8.90;;;8.30;;
19358;SDS011;9815;52.334;20.890;2023-08-07T02:39:27;8.23;;;7.27;;
19358;SDS011;9815;52.334;20.890;2023-08-07T02:41:55;8.20;;;7.60;;
19358;SDS011;9815;52.334;20.890;2023-08-07T02:44:25;7.13;;;6.60;;
19358;SDS011;9815;52.334;20.890;2023-08-07T02:46:55;8.23;;;7.63;;
19358;SDS011;9815;52.334;20.890;2023-08-07T02:49:24;7.67;;;7.07;;
19358;SDS011;9815;52.334;20.890;2023-08-07T02:51:52;7.93;;;7.43;;
19358;SDS011;9815;52.334;20.890;2023-08-07T02:54:20;7.80;;;7.30;;
19358;SDS011;9815;52.334;20.890;2023-08-07T02:56:49;8.80;;;8.10;;
19358;SDS011;9815;52.334;20.890;2023-08-07T02:59:17;11.30;;;10.57;;
19358;SDS011;9815;52.334;20.890;2023-08-07T03:01:46;8.80;;;8.13;;
19358;SDS011;9815;52.334;20.890;2023-08-07T03:04:15;9.33;;;8.63;;
19358;SDS011;9815;52.334;20.890;2023-08-07T03:06:44;9.77;;;9.10;;
19358;SDS011;9815;52.334;20.890;2023-08-07T03:09:12;9.23;;;8.67;;
19358;SDS011;9815;52.334;20.890;2023-08-07T03:11:40;8.93;;;8.33;;
19358;SDS011;9815;52.334;20.890;2023-08-07T03:14:09;9.90;;;8.93;;
19358;SDS011;9815;52.334;20.890;2023-08-07T03:16:37;9.70;;;9.00;;
19358;SDS011;9815;52.334;20.890;2023-08-07T03:19:05;9.80;;;9.10;;
19358;SDS011;9815;52.334;20.890;2023-08-07T03:21:36;9.83;;;9.20;;
19358;SDS011;9815;52.334;20.890;2023-08-07T03:24:05;9.63;;;8.97;;
19358;SDS011;9815;52.334;20.890;2023-08-07T03:26:38;8.93;;;8.33;;
19358;SDS011;9815;52.334;20.890;2023-08-07T03:29:07;9.67;;;8.97;;
19358;SDS011;9815;52.334;20.890;2023-08-07T03:31:37;10.10;;;9.40;;
19358;SDS011;9815;52.334;20.890;2023-08-07T03:34:06;9.83;;;9.13;;
19358;SDS011;9815;52.334;20.890;2023-08-07T03:36:35;9.77;;;9.13;;
19358;SDS011;9815;52.334;20.890;2023-08-07T03:39:04;9.40;;;8.70;;
19358;SDS011;9815;52.334;20.890;2023-08-07T03:41:32;8.77;;;8.17;;
19358;SDS011;9815;52.334;20.890;2023-08-07T03:44:01;10.03;;;9.13;;
19358;SDS011;9815;52.334;20.890;2023-08-07T03:46:29;9.97;;;9.27;;
19358;SDS011;9815;52.334;20.890;2023-08-07T03:48:57;9.13;;;8.53;;
19358;SDS011;9815;52.334;20.890;2023-08-07T03:51:32;9.37;;;8.67;;
19358;SDS011;9815;52.334;20.890;2023-08-07T03:54:02;10.10;;;9.40;;
19358;SDS011;9815;52.334;20.890;2023-08-07T03:56:31;10.07;;;9.37;;
19358;SDS011;9815;52.334;20.890;2023-08-07T03:59:04;10.17;;;9.10;;
19358;SDS011;9815;52.334;20.890;2023-08-07T04:01:33;9.93;;;9.23;;
19358;SDS011;9815;52.334;20.890;2023-08-07T04:04:02;10.23;;;9.53;;
19358;SDS011;9815;52.334;20.890;2023-08-07T04:06:30;9.53;;;8.83;;
19358;SDS011;9815;52.334;20.890;2023-08-07T04:08:59;9.77;;;9.07;;
19358;SDS011;9815;52.334;20.890;2023-08-07T04:11:29;9.67;;;9.00;;
19358;SDS011;9815;52.334;20.890;2023-08-07T04:13:59;10.00;;;9.30;;
19358;SDS011;9815;52.334;20.890;2023-08-07T04:16:28;9.97;;;8.87;;
19358;SDS011;9815;52.334;20.890;2023-08-07T04:19:00;9.67;;;9.07;;
19358;SDS011;9815;52.334;20.890;2023-08-07T04:21:29;9.77;;;9.07;;
19358;SDS011;9815;52.334;20.890;2023-08-07T04:23:58;9.40;;;8.70;;
19358;SDS011;9815;52.334;20.890;2023-08-07T04:26:27;9.60;;;8.70;;
19358;SDS011;9815;52.334;20.890;2023-08-07T04:28:57;10.07;;;9.37;;
19358;SDS011;9815;52.334;20.890;2023-08-07T04:31:25;9.70;;;8.90;;
19358;SDS011;9815;52.334;20.890;2023-08-07T04:33:53;10.13;;;9.33;;
19358;SDS011;9815;52.334;20.890;2023-08-07T04:36:22;9.53;;;8.87;;
19358;SDS011;9815;52.334;20.890;2023-08-07T04:38:50;10.37;;;9.47;;
19358;SDS011;9815;52.334;20.890;2023-08-07T04:41:19;9.90;;;9.23;;
19358;SDS011;9815;52.334;20.890;2023-08-07T04:43:48;10.17;;;9.47;;
19358;SDS011;9815;52.334;20.890;2023-08-07T04:46:17;11.47;;;10.67;;
19358;SDS011;9815;52.334;20.890;2023-08-07T04:48:46;10.27;;;9.57;;
19358;SDS011;9815;52.334;20.890;2023-08-07T04:51:14;10.07;;;9.37;;
19358;SDS011;9815;52.334;20.890;2023-08-07T04:53:44;11.00;;;10.20;;
19358;SDS011;9815;52.334;20.890;2023-08-07T04:56:17;11.70;;;11.00;;
19358;SDS011;9815;52.334;20.890;2023-08-07T04:58:45;11.17;;;10.47;;
19358;SDS011;9815;52.334;20.890;2023-08-07T05:01:15;11.40;;;10.70;;
19358;SDS011;9815;52.334;20.890;2023-08-07T05:03:43;12.33;;;11.63;;
19358;SDS011;9815;52.334;20.890;2023-08-07T05:06:12;11.97;;;11.27;;
19358;SDS011;9815;52.334;20.890;2023-08-07T05:08:40;11.13;;;10.43;;
19358;SDS011;9815;52.334;20.890;2023-08-07T05:11:08;11.77;;;10.97;;
19358;SDS011;9815;52.334;20.890;2023-08-07T05:13:37;11.90;;;11.10;;
19358;SDS011;9815;52.334;20.890;2023-08-07T05:16:05;11.60;;;10.80;;
19358;SDS011;9815;52.334;20.890;2023-08-07T05:18:35;12.13;;;11.23;;
19358;SDS011;9815;52.334;20.890;2023-08-07T05:21:03;11.10;;;10.40;;
19358;SDS011;9815;52.334;20.890;2023-08-07T05:23:33;11.13;;;10.43;;
19358;SDS011;9815;52.334;20.890;2023-08-07T05:26:01;11.80;;;11.00;;
19358;SDS011;9815;52.334;20.890;2023-08-07T05:28:30;11.63;;;10.93;;
19358;SDS011;9815;52.334;20.890;2023-08-07T05:30:58;12.60;;;11.80;;
19358;SDS011;9815;52.334;20.890;2023-08-07T05:33:26;13.53;;;12.53;;
19358;SDS011;9815;52.334;20.890;2023-08-07T05:35:56;11.80;;;10.77;;
19358;SDS011;9815;52.334;20.890;2023-08-07T05:38:24;11.57;;;10.77;;
19358;SDS011;9815;52.334;20.890;2023-08-07T05:40:52;11.57;;;10.87;;
19358;SDS011;9815;52.334;20.890;2023-08-07T05:43:21;11.03;;;10.33;;
19358;SDS011;9815;52.334;20.890;2023-08-07T05:45:49;12.33;;;11.53;;
19358;SDS011;9815;52.334;20.890;2023-08-07T05:48:18;11.30;;;10.50;;
19358;SDS011;9815;52.334;20.890;2023-08-07T05:50:46;11.23;;;10.43;;
19358;SDS011;9815;52.334;20.890;2023-08-07T05:53:16;11.10;;;10.30;;
19358;SDS011;9815;52.334;20.890;2023-08-07T05:55:44;11.67;;;10.87;;
19358;SDS011;9815;52.334;20.890;2023-08-07T05:58:12;11.60;;;10.57;;
19358;SDS011;9815;52.334;20.890;2023-08-07T06:00:41;10.87;;;9.93;;
19358;SDS011;9815;52.334;20.890;2023-08-07T06:03:09;11.00;;;10.30;;
19358;SDS011;9815;52.334;20.890;2023-08-07T06:05:37;10.80;;;10.03;;
19358;SDS011;9815;52.334;20.890;2023-08-07T06:08:06;10.57;;;9.87;;
19358;SDS011;9815;52.334;20.890;2023-08-07T06:10:37;11.73;;;10.93;;
19358;SDS011;9815;52.334;20.890;2023-08-07T06:13:05;11.87;;;11.07;;
19358;SDS011;9815;52.334;20.890;2023-08-07T06:15:40;12.17;;;11.27;;
19358;SDS011;9815;52.334;20.890;2023-08-07T06:18:08;11.47;;;10.47;;
19358;SDS011;9815;52.334;20.890;2023-08-07T06:20:36;10.93;;;9.90;;
19358;SDS011;9815;52.334;20.890;2023-08-07T06:23:04;11.07;;;10.30;;
19358;SDS011;9815;52.334;20.890;2023-08-07T06:25:33;11.63;;;10.87;;
19358;SDS011;9815;52.334;20.890;2023-08-07T06:28:03;11.03;;;10.33;;
19358;SDS011;9815;52.334;20.890;2023-08-07T06:30:31;12.03;;;11.07;;
19358;SDS011;9815;52.334;20.890;2023-08-07T06:33:00;14.53;;;13.63;;
19358;SDS011;9815;52.334;20.890;2023-08-07T06:35:29;10.97;;;10.03;;
19358;SDS011;9815;52.334;20.890;2023-08-07T06:37:57;9.97;;;9.20;;
19358;SDS011;9815;52.334;20.890;2023-08-07T06:40:26;10.93;;;10.10;;
19358;SDS011;9815;52.334;20.890;2023-08-07T06:42:54;9.67;;;8.93;;
19358;SDS011;9815;52.334;20.890;2023-08-07T06:45:24;10.07;;;9.17;;
19358;SDS011;9815;52.334;20.890;2023-08-07T06:47:52;10.33;;;9.43;;
19358;SDS011;9815;52.334;20.890;2023-08-07T06:50:21;10.83;;;9.93;;
19358;SDS011;9815;52.334;20.890;2023-08-07T06:52:49;10.77;;;9.93;;
19358;SDS011;9815;52.334;20.890;2023-08-07T06:55:17;11.10;;;10.00;;
19358;SDS011;9815;52.334;20.890;2023-08-07T06:57:46;10.10;;;9.27;;
19358;SDS011;9815;52.334;20.890;2023-08-07T07:00:15;9.83;;;9.13;;
19358;SDS011;9815;52.334;20.890;2023-08-07T07:02:45;10.30;;;9.57;;
19358;SDS011;9815;52.334;20.890;2023-08-07T07:05:14;10.73;;;9.90;;
19358;SDS011;9815;52.334;20.890;2023-08-07T07:07:46;10.07;;;9.27;;
19358;SDS011;9815;52.334;20.890;2023-08-07T07:10:14;10.93;;;9.93;;
19358;SDS011;9815;52.334;20.890;2023-08-07T07:12:42;11.67;;;10.67;;
19358;SDS011;9815;52.334;20.890;2023-08-07T07:15:13;9.93;;;9.23;;
19358;SDS011;9815;52.334;20.890;2023-08-07T07:17:41;10.67;;;9.87;;
19358;SDS011;9815;52.334;20.890;2023-08-07T07:20:11;11.37;;;10.57;;
19358;SDS011;9815;52.334;20.890;2023-08-07T07:22:40;13.63;;;12.63;;
19358;SDS011;9815;52.334;20.890;2023-08-07T07:25:09;11.23;;;10.40;;
19358;SDS011;9815;52.334;20.890;2023-08-07T07:27:38;15.37;;;14.27;;
19358;SDS011;9815;52.334;20.890;2023-08-07T07:30:07;11.90;;;11.10;;
19358;SDS011;9815;52.334;20.890;2023-08-07T07:32:36;12.23;;;11.20;;
19358;SDS011;9815;52.334;20.890;2023-08-07T07:35:05;13.57;;;12.70;;
19358;SDS011;9815;52.334;20.890;2023-08-07T07:37:35;14.53;;;13.43;;
19358;SDS011;9815;52.334;20.890;2023-08-07T07:40:04;13.37;;;12.47;;
19358;SDS011;9815;52.334;20.890;2023-08-07T07:42:33;12.73;;;11.93;;
19358;SDS011;9815;52.334;20.890;2023-08-07T07:45:02;13.03;;;11.93;;
19358;SDS011;9815;52.334;20.890;2023-08-07T07:47:31;11.80;;;11.00;;
19358;SDS011;9815;52.334;20.890;2023-08-07T07:50:07;11.60;;;10.80;;
19358;SDS011;9815;52.334;20.890;2023-08-07T07:52:37;12.07;;;11.27;;
19358;SDS011;9815;52.334;20.890;2023-08-07T07:55:06;12.10;;;11.20;;
19358;SDS011;9815;52.334;20.890;2023-08-07T07:57:35;12.07;;;11.27;;
19358;SDS011;9815;52.334;20.890;2023-08-07T08:00:04;13.07;;;12.27;;
19358;SDS011;9815;52.334;20.890;2023-08-07T08:02:40;12.63;;;11.83;;
19358;SDS011;9815;52.334;20.890;2023-08-07T08:05:09;14.77;;;13.53;;
19358;SDS011;9815;52.334;20.890;2023-08-07T08:07:40;12.97;;;12.07;;
19358;SDS011;9815;52.334;20.890;2023-08-07T08:10:08;11.03;;;10.23;;
19358;SDS011;9815;52.334;20.890;2023-08-07T08:12:37;10.40;;;9.67;;
19358;SDS011;9815;52.334;20.890;2023-08-07T08:15:06;8.63;;;8.13;;
19358;SDS011;9815;52.334;20.890;2023-08-07T08:17:35;9.23;;;8.53;;
19358;SDS011;9815;52.334;20.890;2023-08-07T08:20:04;7.33;;;6.83;;
19358;SDS011;9815;52.334;20.890;2023-08-07T08:22:33;7.43;;;6.93;;
19358;SDS011;9815;52.334;20.890;2023-08-07T08:25:03;7.00;;;6.50;;
19358;SDS011;9815;52.334;20.890;2023-08-07T08:27:33;8.60;;;6.57;;
19358;SDS011;9815;52.334;20.890;2023-08-07T08:30:01;7.03;;;6.47;;
19358;SDS011;9815;52.334;20.890;2023-08-07T08:32:30;6.90;;;6.40;;
19358;SDS011;9815;52.334;20.890;2023-08-07T08:34:58;5.83;;;5.43;;
19358;SDS011;9815;52.334;20.890;2023-08-07T08:37:27;6.17;;;5.77;;
19358;SDS011;9815;52.334;20.890;2023-08-07T08:39:56;5.27;;;4.87;;
19358;SDS011;9815;52.334;20.890;2023-08-07T08:42:26;4.50;;;4.10;;
19358;SDS011;9815;52.334;20.890;2023-08-07T08:44:55;4.70;;;4.27;;
19358;SDS011;9815;52.334;20.890;2023-08-07T08:47:26;4.70;;;4.33;;
19358;SDS011;9815;52.334;20.890;2023-08-07T08:49:56;4.73;;;4.43;;
19358;SDS011;9815;52.334;20.890;2023-08-07T08:52:28;4.70;;;4.30;;
19358;SDS011;9815;52.334;20.890;2023-08-07T08:54:59;4.73;;;4.40;;
19358;SDS011;9815;52.334;20.890;2023-08-07T08:57:31;4.10;;;3.80;;
19358;SDS011;9815;52.334;20.890;2023-08-07T09:00:00;4.47;;;4.13;;
19358;SDS011;9815;52.334;20.890;2023-08-07T09:02:33;3.30;;;3.03;;
19358;SDS011;9815;52.334;20.890;2023-08-07T09:05:02;3.20;;;2.80;;
19358;SDS011;9815;52.334;20.890;2023-08-07T09:07:31;3.17;;;2.67;;
19358;SDS011;9815;52.334;20.890;2023-08-07T09:10:00;2.83;;;2.63;;
19358;SDS011;9815;52.334;20.890;2023-08-07T09:12:32;4.10;;;2.80;;
19358;SDS011;9815;52.334;20.890;2023-08-07T09:15:01;3.10;;;2.73;;
19358;SDS011;9815;52.334;20.890;2023-08-07T09:17:31;3.10;;;2.80;;
19358;SDS011;9815;52.334;20.890;2023-08-07T09:20:06;2.07;;;1.97;;
19358;SDS011;9815;52.334;20.890;2023-08-07T09:22:38;2.43;;;1.90;;
19358;SDS011;9815;52.334;20.890;2023-08-07T09:25:07;2.40;;;1.77;;
19358;SDS011;9815;52.334;20.890;2023-08-07T09:27:38;1.60;;;1.40;;
19358;SDS011;9815;52.334;20.890;2023-08-07T09:30:07;1.57;;;1.30;;
19358;SDS011;9815;52.334;20.890;2023-08-07T09:32:37;2.40;;;1.50;;
19358;SDS011;9815;52.334;20.890;2023-08-07T09:35:07;2.30;;;1.50;;
19358;SDS011;9815;52.334;20.890;2023-08-07T09:37:37;2.23;;;1.40;;
19358;SDS011;9815;52.334;20.890;2023-08-07T09:40:05;4.63;;;1.40;;
19358;SDS011;9815;52.334;20.890;2023-08-07T09:42:38;1.47;;;1.37;;
19358;SDS011;9815;52.334;20.890;2023-08-07T09:45:18;1.50;;;1.20;;
19358;SDS011;9815;52.334;20.890;2023-08-07T09:47:56;3.20;;;1.43;;
19358;SDS011;9815;52.334;20.890;2023-08-07T09:50:27;3.00;;;1.20;;
19358;SDS011;9815;52.334;20.890;2023-08-07T09:52:56;2.27;;;1.10;;
19358;SDS011;9815;52.334;20.890;2023-08-07T09:55:25;2.27;;;1.40;;
19358;SDS011;9815;52.334;20.890;2023-08-07T09:57:55;1.73;;;1.43;;
19358;SDS011;9815;52.334;20.890;2023-08-07T10:00:23;3.93;;;1.60;;
19358;SDS011;9815;52.334;20.890;2023-08-07T10:02:53;2.60;;;1.50;;
19358;SDS011;9815;52.334;20.890;2023-08-07T10:05:22;3.50;;;1.30;;
19358;SDS011;9815;52.334;20.890;2023-08-07T10:07:50;3.00;;;1.20;;
19358;SDS011;9815;52.334;20.890;2023-08-07T10:10:21;1.43;;;1.20;;
19358;SDS011;9815;52.334;20.890;2023-08-07T10:12:49;2.80;;;1.00;;
19358;SDS011;9815;52.334;20.890;2023-08-07T10:15:20;4.60;;;1.20;;
19358;SDS011;9815;52.334;20.890;2023-08-07T10:17:49;1.80;;;1.30;;
19358;SDS011;9815;52.334;20.890;2023-08-07T10:20:17;1.97;;;1.20;;
19358;SDS011;9815;52.334;20.890;2023-08-07T10:22:46;1.33;;;1.23;;
19358;SDS011;9815;52.334;20.890;2023-08-07T10:25:16;1.63;;;1.00;;
19358;SDS011;9815;52.334;20.890;2023-08-07T10:27:49;2.97;;;1.20;;
19358;SDS011;9815;52.334;20.890;2023-08-07T10:30:21;1.20;;;1.10;;
19358;SDS011;9815;52.334;20.890;2023-08-07T10:32:51;1.30;;;1.00;;
19358;SDS011;9815;52.334;20.890;2023-08-07T10:35:23;1.43;;;1.07;;
19358;SDS011;9815;52.334;20.890;2023-08-07T10:37:52;2.57;;;1.17;;
19358;SDS011;9815;52.334;20.890;2023-08-07T10:40:21;5.63;;;1.30;;
19358;SDS011;9815;52.334;20.890;2023-08-07T10:42:55;1.57;;;1.30;;
19358;SDS011;9815;52.334;20.890;2023-08-07T10:45:26;1.23;;;1.00;;
19358;SDS011;9815;52.334;20.890;2023-08-07T10:48:02;2.00;;;1.20;;
19358;SDS011;9815;52.334;20.890;2023-08-07T10:50:33;2.30;;;1.23;;
19358;SDS011;9815;52.334;20.890;2023-08-07T10:53:03;3.97;;;1.30;;
19358;SDS011;9815;52.334;20.890;2023-08-07T10:55:42;1.43;;;1.03;;
19358;SDS011;9815;52.334;20.890;2023-08-07T10:58:22;1.53;;;1.17;;
19358;SDS011;9815;52.334;20.890;2023-08-07T11:00:55;2.70;;;1.13;;
19358;SDS011;9815;52.334;20.890;2023-08-07T11:03:48;1.50;;;1.07;;
19358;SDS011;9815;52.334;20.890;2023-08-07T11:06:18;2.30;;;1.00;;
19358;SDS011;9815;52.334;20.890;2023-08-07T11:08:49;3.90;;;1.73;;
19358;SDS011;9815;52.334;20.890;2023-08-07T11:11:18;2.40;;;1.17;;
19358;SDS011;9815;52.334;20.890;2023-08-07T11:13:46;1.40;;;0.90;;
19358;SDS011;9815;52.334;20.890;2023-08-07T11:16:17;1.63;;;1.00;;
19358;SDS011;9815;52.334;20.890;2023-08-07T11:18:48;1.03;;;0.93;;
19358;SDS011;9815;52.334;20.890;2023-08-07T11:21:17;2.60;;;1.00;;
19358;SDS011;9815;52.334;20.890;2023-08-07T11:23:46;1.53;;;1.00;;
19358;SDS011;9815;52.334;20.890;2023-08-07T11:26:16;5.97;;;1.30;;
19358;SDS011;9815;52.334;20.890;2023-08-07T11:28:49;1.93;;;1.00;;
19358;SDS011;9815;52.334;20.890;2023-08-07T11:31:19;0.83;;;0.80;;
19358;SDS011;9815;52.334;20.890;2023-08-07T11:33:49;1.10;;;1.00;;
19358;SDS011;9815;52.334;20.890;2023-08-07T11:36:18;4.40;;;1.17;;
19358;SDS011;9815;52.334;20.890;2023-08-07T11:38:46;1.73;;;1.10;;
19358;SDS011;9815;52.334;20.890;2023-08-07T11:41:15;1.40;;;1.17;;
19358;SDS011;9815;52.334;20.890;2023-08-07T11:43:45;1.93;;;1.00;;
19358;SDS011;9815;52.334;20.890;2023-08-07T11:46:15;4.00;;;1.20;;
19358;SDS011;9815;52.334;20.890;2023-08-07T11:48:45;2.67;;;1.30;;
19358;SDS011;9815;52.334;20.890;2023-08-07T11:51:13;1.67;;;1.20;;
19358;SDS011;9815;52.334;20.890;2023-08-07T11:53:42;2.17;;;1.30;;
19358;SDS011;9815;52.334;20.890;2023-08-07T11:56:11;1.67;;;1.13;;
19358;SDS011;9815;52.334;20.890;2023-08-07T11:58:42;2.23;;;1.20;;
19358;SDS011;9815;52.334;20.890;2023-08-07T12:01:13;2.57;;;1.40;;
19358;SDS011;9815;52.334;20.890;2023-08-07T12:03:52;2.43;;;1.20;;
19358;SDS011;9815;52.334;20.890;2023-08-07T12:06:23;2.67;;;1.37;;
19358;SDS011;9815;52.334;20.890;2023-08-07T12:08:53;2.23;;;1.30;;
19358;SDS011;9815;52.334;20.890;2023-08-07T12:11:24;3.07;;;1.43;;
19358;SDS011;9815;52.334;20.890;2023-08-07T12:13:52;3.63;;;1.30;;
19358;SDS011;9815;52.334;20.890;2023-08-07T12:16:20;4.00;;;1.50;;
19358;SDS011;9815;52.334;20.890;2023-08-07T12:18:49;3.47;;;1.40;;
19358;SDS011;9815;52.334;20.890;2023-08-07T12:21:20;1.87;;;1.50;;
19358;SDS011;9815;52.334;20.890;2023-08-07T12:23:51;2.60;;;1.60;;
19358;SDS011;9815;52.334;20.890;2023-08-07T12:26:22;3.30;;;1.10;;
19358;SDS011;9815;52.334;20.890;2023-08-07T12:28:53;3.50;;;1.57;;
19358;SDS011;9815;52.334;20.890;2023-08-07T12:31:21;1.77;;;1.50;;
19358;SDS011;9815;52.334;20.890;2023-08-07T12:33:49;3.13;;;1.30;;
19358;SDS011;9815;52.334;20.890;2023-08-07T12:36:20;3.93;;;1.40;;
19358;SDS011;9815;52.334;20.890;2023-08-07T12:38:48;3.33;;;1.57;;
19358;SDS011;9815;52.334;20.890;2023-08-07T12:41:17;2.00;;;1.40;;
19358;SDS011;9815;52.334;20.890;2023-08-07T12:43:48;2.40;;;1.50;;
19358;SDS011;9815;52.334;20.890;2023-08-07T12:46:16;1.90;;;1.20;;
19358;SDS011;9815;52.334;20.890;2023-08-07T12:48:48;2.50;;;1.20;;
19358;SDS011;9815;52.334;20.890;2023-08-07T12:51:17;2.20;;;1.27;;
19358;SDS011;9815;52.334;20.890;2023-08-07T12:53:46;2.57;;;1.60;;
19358;SDS011;9815;52.334;20.890;2023-08-07T12:56:14;1.50;;;1.10;;
19358;SDS011;9815;52.334;20.890;2023-08-07T12:58:42;3.17;;;1.50;;
19358;SDS011;9815;52.334;20.890;2023-08-07T13:01:12;2.67;;;1.70;;
19358;SDS011;9815;52.334;20.890;2023-08-07T13:03:40;3.30;;;1.47;;
19358;SDS011;9815;52.334;20.890;2023-08-07T13:06:09;2.27;;;1.30;;
19358;SDS011;9815;52.334;20.890;2023-08-07T13:08:39;2.50;;;1.27;;
19358;SDS011;9815;52.334;20.890;2023-08-07T13:11:08;3.07;;;1.53;;
19358;SDS011;9815;52.334;20.890;2023-08-07T13:13:36;3.10;;;1.70;;
19358;SDS011;9815;52.334;20.890;2023-08-07T13:16:06;2.00;;;1.30;;
19358;SDS011;9815;52.334;20.890;2023-08-07T13:18:34;2.20;;;1.60;;
19358;SDS011;9815;52.334;20.890;2023-08-07T13:21:03;1.47;;;1.27;;
19358;SDS011;9815;52.334;20.890;2023-08-07T13:23:31;2.37;;;1.37;;
19358;SDS011;9815;52.334;20.890;2023-08-07T13:26:01;1.50;;;1.40;;
19358;SDS011;9815;52.334;20.890;2023-08-07T13:28:29;4.33;;;1.50;;
19358;SDS011;9815;52.334;20.890;2023-08-07T13:30:57;3.17;;;1.70;;
19358;SDS011;9815;52.334;20.890;2023-08-07T13:33:26;2.13;;;1.50;;
19358;SDS011;9815;52.334;20.890;2023-08-07T13:35:54;2.67;;;1.60;;
19358;SDS011;9815;52.334;20.890;2023-08-07T13:38:22;1.30;;;1.20;;
19358;SDS011;9815;52.334;20.890;2023-08-07T13:40:51;3.77;;;1.33;;
19358;SDS011;9815;52.334;20.890;2023-08-07T13:43:21;1.77;;;1.30;;
19358;SDS011;9815;52.334;20.890;2023-08-07T13:45:49;4.03;;;1.67;;
19358;SDS011;9815;52.334;20.890;2023-08-07T13:48:18;3.50;;;1.50;;
19358;SDS011;9815;52.334;20.890;2023-08-07T13:50:46;2.07;;;1.40;;
19358;SDS011;9815;52.334;20.890;2023-08-07T13:53:14;2.80;;;1.57;;
19358;SDS011;9815;52.334;20.890;2023-08-07T13:55:43;2.27;;;1.53;;
19358;SDS011;9815;52.334;20.890;2023-08-07T13:58:11;3.77;;;1.60;;
19358;SDS011;9815;52.334;20.890;2023-08-07T14:00:43;1.97;;;1.60;;
19358;SDS011;9815;52.334;20.890;2023-08-07T14:03:11;2.20;;;1.30;;
19358;SDS011;9815;52.334;20.890;2023-08-07T14:05:41;2.63;;;1.50;;
19358;SDS011;9815;52.334;20.890;2023-08-07T14:08:09;2.93;;;1.60;;
19358;SDS011;9815;52.334;20.890;2023-08-07T14:10:38;3.10;;;2.10;;
19358;SDS011;9815;52.334;20.890;2023-08-07T14:13:08;6.27;;;2.40;;
19358;SDS011;9815;52.334;20.890;2023-08-07T14:15:38;3.70;;;2.40;;
19358;SDS011;9815;52.334;20.890;2023-08-07T14:18:08;3.50;;;3.20;;
19358;SDS011;9815;52.334;20.890;2023-08-07T14:20:37;4.57;;;3.37;;
19358;SDS011;9815;52.334;20.890;2023-08-07T14:23:25;3.83;;;3.53;;
19358;SDS011;9815;52.334;20.890;2023-08-07T14:26:14;6.43;;;4.20;;
19358;SDS011;9815;52.334;20.890;2023-08-07T14:28:42;5.77;;;4.37;;
19358;SDS011;9815;52.334;20.890;2023-08-07T14:31:11;5.00;;;4.60;;
19358;SDS011;9815;52.334;20.890;2023-08-07T14:33:40;6.47;;;5.17;;
19358;SDS011;9815;52.334;20.890;2023-08-07T14:36:09;6.03;;;5.60;;
19358;SDS011;9815;52.334;20.890;2023-08-07T14:38:37;6.00;;;5.40;;
19358;SDS011;9815;52.334;20.890;2023-08-07T14:41:08;6.00;;;5.50;;
19358;SDS011;9815;52.334;20.890;2023-08-07T14:43:37;6.00;;;5.57;;
19358;SDS011;9815;52.334;20.890;2023-08-07T14:46:05;8.20;;;6.90;;
19358;SDS011;9815;52.334;20.890;2023-08-07T14:48:33;7.47;;;6.93;;
19358;SDS011;9815;52.334;20.890;2023-08-07T14:51:03;6.87;;;4.80;;
19358;SDS011;9815;52.334;20.890;2023-08-07T14:53:32;4.50;;;2.80;;
19358;SDS011;9815;52.334;20.890;2023-08-07T14:56:02;4.70;;;2.40;;